Penn West Petroleum Ltd (PWE) Latest Bloomsberg Price


Mffais Ranking #506 Overall / #22 Industry
Industry: Exploration And Production

Number of Companies: 100 (Ranking #1643 Overall/#44 Industry)
Inflow: $ 14,268 (K) (Ranking #1874 Overall/#52 Industry)
Outflow: $ -5,152 (K)
Mffais Flow: $ 9,116 (K) (Ranking #506 Overall/#22 Industry)


Receive a FREE weekly executive review of stocks moving into the top 10, taking the top industy spot or moving up within their industry. Sent directly to your Inbox every Saturday. Sign up today and get last week's review immediately sent to you.

We value and respect your privacy. Please read our Terms and Conditions which states our firm commitment to your privacy. Your email address will not be shared with a third party, nor will it be sold or used for purposes other than subscription for the weekly review.

Owner CPOR Shares Action Qty Chg Invested (K) Total Current Value (K)
Contrarius Investment Management Ltd 2016-09-30 5,928,775 New Holding 5,928,775 $ 7,766 $ 7,766
Qs Investors Llc 2016-09-30 2,487,137 New Holding 2,487,137 $ 3,258 $ 3,258
Connor Clark Lunn Investment Management Ltd 2016-09-30 8,976,458 Added More 952,350 $ 1,247 $ 11,759
Kcg Holdings Inc 2016-09-30 558,237 Added More 450,502 $ 590 $ 731
Frontfour Capital Group Llc 2016-09-30 16,002,100 Added More 263,570 $ 345 $ 20,962
Hillsdale Investment Management Inc 2016-09-30 220,000 Added More 145,000 $ 189 $ 288
Qcm Cayman Ltd 2016-09-30 133,800 New Holding 133,800 $ 175 $ 175
Two Sigma Securities Llc 2016-09-30 127,108 New Holding 127,108 $ 166 $ 166
Jane Street Group Llc 2016-09-30 68,095 New Holding 68,095 $ 89 $ 89
Airain Ltd 2016-09-30 58,198 New Holding 58,198 $ 76 $ 76
Brandes Investment Partners Lp 2016-09-30 40,000 New Holding 40,000 $ 52 $ 52
A R T Advisors Llc 2016-09-30 39,000 New Holding 39,000 $ 51 $ 51
Scotia Capital Inc 2016-09-30 453,711 Added More 27,933 $ 36 $ 594
Tower Research Capital Llc Trc 2016-09-30 43,162 Added More 27,652 $ 36 $ 56
Swiss National Bank 2016-09-30 812,700 Added More 26,900 $ 35 $ 1,064
Parametric Portfolio Associates Llc 2016-09-30 19,862 New Holding 19,862 $ 26 $ 26
Wealthtrust Axiom Llc 2016-09-30 201,600 Added More 13,500 $ 17 $ 264
Mathes Company Inc 2016-09-30 75,500 Added More 12,500 $ 16 $ 98
Cibc World Markets Inc 2016-09-30 222,995 Added More 11,467 $ 15 $ 292
Johnson Investment Counsel Inc 2016-09-30 11,385 New Holding 11,385 $ 14 $ 14
Spot Trading L L C 2016-09-30 84,055 Added More 9,500 $ 12 $ 110
Massmutual Trust Co Fsb Adv 2016-06-30 5,000 New Holding 5,000 $ 6 $ 6
Ifp Advisors Inc 2016-09-30 17,467 Added More 4,675 $ 6 $ 22
Creative Planning 2016-09-30 460,275 Added More 4,171 $ 5 $ 602
Commonwealth Equity Services Inc 2016-09-30 35,068 Added More 4,100 $ 5 $ 45
Pnc Financial Services Group Inc 2016-09-30 91,006 Added More 3,910 $ 5 $ 119
Investors Capital Advisory Services 2016-06-30 20,852 Added More 3,515 $ 4 $ 28
Private Advisor Group Llc 2016-09-30 23,547 Added More 3,500 $ 4 $ 30
Springbok Capital Management Llc 2016-09-30 2,600 New Holding 2,600 $ 3 $ 3
World Asset Management Inc 2016-09-30 33,762 Added More 2,490 $ 3 $ 44
Integral Derivatives Llc 2016-09-30 33,776 Added More 2,100 $ 2 $ 44
Hanson Mcclain Inc 2016-06-30 1,000 New Holding 1,000 $ 1 $ 1
Walleye Trading Llc 2016-09-30 285 Added More 223 $ 0 $ 0
Next Financial Group Inc 2016-09-30 1,139 Added More 177 $ 0 $ 1
Members Trust Co 2016-09-30 16,470 No Change 0 $ 0 $ 21
Fifth Third Bancorp 2016-09-30 355 No Change 0 $ 0 $ 0
Dimensional Fund Advisors Lp 2016-09-30 289,327 No Change 0 $ 0 $ 379
First Manhattan Co 2016-09-30 630 No Change 0 $ 0 $ 0
Oppenheimer Co Inc 2016-09-30 14,925 No Change 0 $ 0 $ 19
Delta Asset Management Llc Tn 2016-09-30 5,000 No Change 0 $ 0 $ 6
Elkhorn Partners Limited Partnership 2016-09-30 237,000 No Change 0 $ 0 $ 310
Ontario Teachers Pension Plan Board 2016-09-30 453,890 No Change 0 $ 0 $ 594
Ing Groep Nv 2016-09-30 11,000 No Change 0 $ 0 $ 14
Bainco International Investors 2016-09-30 10,000 No Change 0 $ 0 $ 13
Howard Capital Management 2016-09-30 14,000 No Change 0 $ 0 $ 18
First Foundation Advisors 2016-09-30 46,000 No Change 0 $ 0 $ 60
First Interstate Bank 2016-09-30 200 No Change 0 $ 0 $ 0
Trust Co Of Vermont 2016-09-30 852 No Change 0 $ 0 $ 1
Northwestern Mutual Wealth Management Co 2016-09-30 1,500 No Change 0 $ 0 $ 1
Shell Asset Management Co 2016-09-30 47,300 No Change 0 $ 0 $ 61
Ims Capital Management 2016-09-30 18,015 No Change 0 $ 0 $ 23
Aperio Group Llc 2016-09-30 11,224 No Change 0 $ 0 $ 14
Blackrock Inc 2016-09-30 3 No Change 0 $ 0 $ 0
Zurcher Kantonalbank Zurich Cantonalbank 2016-09-30 15,806 No Change 0 $ 0 $ 20
Msi Financial Services Inc 2016-09-30 1,157 No Change 0 $ 0 $ 1
Ls Investment Advisors Llc 2016-09-30 230 No Change 0 $ 0 $ 0
Horizon Kinetics Llc 2016-09-30 62,562 No Change 0 $ 0 $ 81
Wfg Advisors Lp 2016-09-30 720 No Change 0 $ 0 $ 0
Lombard Odier Asset Management Europe Ltd 2016-09-30 46,287 No Change 0 $ 0 $ 60
Compagnie Lombard Odier Scma 2016-09-30 159,000 No Change 0 $ 0 $ 208
Integrated Wealth Management 2016-09-30 1,500 No Change 0 $ 0 $ 1
Sheaff Brock Investment Advisors Llc 2016-09-30 30,499 No Change 0 $ 0 $ 39
Jacobi Capital Management Llc 2016-09-30 500 No Change 0 $ 0 $ 0
Shamrock Asset Management Llc 2016-09-30 0 New Holding 0 $ 0 $ 0
Hallmark Capital Management Inc 2016-09-30 0 Sold All -180 $ -0 $ 0
Hightower Advisors Llc 2016-09-30 10,000 Sold Some -300 $ -0 $ 13
Keybank National Association Oh 2016-09-30 37,400 Sold Some -400 $ -0 $ 48
Td Asset Management Inc 2016-09-30 16,049 Sold Some -606 $ -0 $ 21
Cutler Group Lp 2016-09-30 16,595 Sold Some -1,300 $ -1 $ 21
Raymond James Associates 2016-09-30 12,547 Sold Some -1,430 $ -1 $ 16
Ladenburg Thalmann Financial Services Inc 2016-09-30 45,804 Sold Some -1,618 $ -2 $ 60
Comerica Bank 2016-09-30 25,758 Sold Some -1,690 $ -2 $ 33
Checchi Capital Advisers Llc 2016-09-30 0 Sold All -2,030 $ -2 $ 0
Cambridge Investment Research Advisors Inc 2016-09-30 65,255 Sold Some -2,109 $ -2 $ 85
Central Bank Trust Co 2016-09-30 2,076 Sold Some -2,164 $ -2 $ 2
Diversified Investment Strategies Llc 2016-09-30 71,456 Sold Some -2,800 $ -3 $ 93
Sigma Planning Corp 2016-09-30 16,038 Sold Some -3,000 $ -3 $ 21
Camelot Portfolios Llc 2016-09-30 18,525 Sold Some -3,000 $ -3 $ 24
Advisor Group Inc 2016-09-30 7,614 Sold Some -3,846 $ -5 $ 9
Cetera Advisors Llc 2016-09-30 23,937 Sold Some -5,450 $ -7 $ 31
Bank Of Nova Scotia 2016-09-30 135,606 Sold Some -5,690 $ -7 $ 177
Sandy Spring Bank 2016-09-30 0 Sold All -7,400 $ -9 $ 0
Simplex Trading Llc 2016-09-30 55,471 Sold Some -9,371 $ -12 $ 72
Commerzbank Aktiengesellschaft Fi 2016-09-30 0 Sold All -13,324 $ -17 $ 0
Raymond James Financial Services Advisors Inc 2016-09-30 0 Sold All -18,356 $ -24 $ 0
Wedbush Securities Inc 2016-09-30 20,675 Sold Some -21,325 $ -27 $ 27
Her Majesty The Queen In Right Of The Province Of Alberta As 2016-09-30 100,000 Sold Some -23,400 $ -30 $ 131
Group One Trading L P 2016-09-30 891,854 Sold Some -30,866 $ -40 $ 1,168
Old Mutual Customised Solutions Proprietary Ltd 2016-09-30 40,000 Sold Some -62,500 $ -81 $ 52
Commonwealth Bank Of Australia 2016-09-30 667,120 Sold Some -89,100 $ -116 $ 873
Timber Hill Llc 2016-09-30 0 Sold All -90,000 $ -117 $ 0
Clear Harbor Asset Management Llc 2016-09-30 289,800 Sold Some -130,855 $ -171 $ 379
Us Bancorp De 2016-09-30 19,518 Sold Some -142,480 $ -186 $ 25
Pinebridge Investments L P 2016-09-30 0 Sold All -186,307 $ -244 $ 0
Cubist Systematic Strategies Llc 2016-09-30 129,921 Sold Some -253,674 $ -332 $ 170
Lorber David A 2016-09-30 316,000 Sold Some -384,000 $ -503 $ 413
Legal General Group Plc 2016-09-30 2,402,872 Sold Some -404,381 $ -529 $ 3,147
Grace White Inc Ny 2016-09-30 614,873 Sold Some -496,830 $ -650 $ 805
Scoggin Management Lp 2016-09-30 3,040,000 Sold Some -720,000 $ -943 $ 3,982
Sir Capital Management L P 2016-09-30 0 Sold All -811,700 $ -1,063 $ 0